Time;durP1;ratioP1;P1;durP2;ratioP2;P2;SDS_P1;SDS_P2;PMS_P1;PMS_P2;Temp;Humidity;BMP_temperature;BMP_pressure;BME280_temperature;BME280_humidity;BME280_pressure;Samples;Min_cycle;Max_cycle;Signal;HPM_P1;HPM_P2
2021/01/12 00:02:21;;;;;;;3.08;2.60;;;20.60;40.40;;;;;;5113512;28;20027;-53
2021/01/12 00:04:48;;;;;;;4.25;2.67;;;20.60;40.40;;;;;;5114857;28;20051;-56
2021/01/12 00:07:14;;;;;;;3.17;2.65;;;20.60;40.40;;;;;;5113450;28;20114;-57
2021/01/12 00:09:40;;;;;;;3.53;2.60;;;20.60;40.30;;;;;;5116083;27;20127;-56
2021/01/12 00:12:07;;;;;;;4.45;2.63;;;20.60;40.30;;;;;;5112394;28;20103;-58
2021/01/12 00:14:33;;;;;;;4.03;2.83;;;20.60;40.40;;;;;;5114006;28;20030;-58
2021/01/12 00:17:04;;;;;;;6.68;2.95;;;20.60;40.30;;;;;;5112716;28;20435;-53
2021/01/12 00:19:30;;;;;;;3.35;2.50;;;20.60;40.20;;;;;;5114241;28;20062;-55
2021/01/12 00:21:56;;;;;;;3.78;2.83;;;20.60;40.20;;;;;;5114796;28;20519;-60
2021/01/12 00:24:22;;;;;;;3.28;2.50;;;20.60;40.20;;;;;;5113950;28;20032;-57
2021/01/12 00:26:49;;;;;;;4.30;2.65;;;20.60;40.20;;;;;;5115221;28;20080;-56
2021/01/12 00:29:15;;;;;;;3.92;2.67;;;20.50;40.10;;;;;;5114824;27;20134;-56
2021/01/12 00:31:41;;;;;;;4.10;2.90;;;20.60;40.10;;;;;;5115140;28;20477;-58
2021/01/12 00:34:07;;;;;;;2.92;2.35;;;20.60;40.10;;;;;;5094430;28;20032;-46
2021/01/12 00:36:42;;;;;;;3.80;2.30;;;20.60;40.00;;;;;;5099245;28;20062;-57
2021/01/12 00:39:08;;;;;;;3.35;2.67;;;20.60;40.00;;;;;;5127117;27;20015;-56
2021/01/12 00:41:34;;;;;;;2.50;2.13;;;20.60;40.00;;;;;;5112007;27;20813;-50
2021/01/12 00:44:00;;;;;;;3.67;2.78;;;20.60;39.90;;;;;;5114047;28;20122;-50
2021/01/12 00:46:26;;;;;;;4.57;2.75;;;20.60;40.00;;;;;;5114769;28;20482;-53
2021/01/12 00:48:51;;;;;;;3.97;2.88;;;20.60;39.90;;;;;;5114431;28;20038;-48
2021/01/12 00:51:17;;;;;;;3.45;2.95;;;20.60;39.90;;;;;;5113713;28;20086;-54
2021/01/12 00:53:43;;;;;;;3.53;2.60;;;20.60;39.80;;;;;;5114531;27;20384;-56
2021/01/12 00:56:15;;;;;;;4.65;2.88;;;20.60;39.80;;;;;;5113233;28;20031;-55
2021/01/12 00:58:41;;;;;;;3.33;2.55;;;20.60;39.80;;;;;;5114814;28;20031;-57
2021/01/12 01:01:07;;;;;;;4.22;2.58;;;20.60;39.80;;;;;;5113271;28;20035;-56
2021/01/12 01:03:33;;;;;;;4.53;2.67;;;20.60;39.70;;;;;;5115048;28;20019;-50
2021/01/12 01:06:04;;;;;;;3.83;2.75;;;20.60;39.80;;;;;;5114427;28;20077;-55
2021/01/12 01:08:29;;;;;;;3.13;2.40;;;20.60;39.70;;;;;;5121888;27;20076;-54
2021/01/12 01:10:55;;;;;;;3.03;2.70;;;20.60;39.60;;;;;;5126589;27;20266;-59
2021/01/12 01:13:23;;;;;;;3.90;2.83;;;20.60;39.70;;;;;;5113778;28;20028;-52
2021/01/12 01:15:49;;;;;;;3.58;2.58;;;20.60;39.60;;;;;;5114177;28;20046;-55
2021/01/12 01:18:15;;;;;;;3.70;2.90;;;20.60;39.60;;;;;;5126224;27;20035;-55
2021/01/12 01:20:41;;;;;;;5.43;2.78;;;20.60;39.60;;;;;;5127471;27;20028;-55
2021/01/12 01:23:06;;;;;;;4.47;2.78;;;20.60;39.50;;;;;;5113009;28;20704;-57
2021/01/12 01:25:32;;;;;;;3.15;2.60;;;20.60;39.60;;;;;;5103866;28;20358;-51
2021/01/12 01:27:57;;;;;;;4.85;3.22;;;20.60;39.60;;;;;;5113596;28;20380;-58
2021/01/12 01:30:23;;;;;;;3.28;2.50;;;20.60;39.50;;;;;;5114214;28;20062;-55
2021/01/12 01:32:49;;;;;;;4.57;2.72;;;20.60;39.50;;;;;;5113669;28;20055;-53
2021/01/12 01:35:15;;;;;;;3.45;2.50;;;20.70;39.70;;;;;;5113449;28;20032;-55
2021/01/12 01:37:40;;;;;;;3.38;2.42;;;20.70;39.50;;;;;;5114618;27;20077;-58
2021/01/12 01:40:06;;;;;;;3.05;2.40;;;20.60;39.50;;;;;;5115419;27;20496;-55
2021/01/12 01:42:34;;;;;;;3.42;2.63;;;20.70;39.50;;;;;;5113878;28;20040;-53
2021/01/12 01:45:00;;;;;;;4.95;2.72;;;20.70;39.50;;;;;;5113284;28;20030;-54
2021/01/12 01:47:26;;;;;;;4.03;2.85;;;20.70;39.50;;;;;;5113869;28;20412;-54
2021/01/12 01:49:53;;;;;;;3.25;2.20;;;20.70;39.40;;;;;;5112584;27;20068;-54
2021/01/12 01:52:19;;;;;;;4.22;2.30;;;20.70;39.40;;;;;;5133436;27;20027;-52
2021/01/12 01:54:45;;;;;;;3.17;2.55;;;20.70;39.50;;;;;;5134114;27;20104;-54
2021/01/12 01:57:11;;;;;;;2.83;2.45;;;20.70;39.30;;;;;;5115253;27;20138;-55
2021/01/12 01:59:37;;;;;;;2.80;2.30;;;20.70;39.30;;;;;;5114327;28;20126;-53
2021/01/12 02:02:05;;;;;;;3.22;2.47;;;20.70;39.30;;;;;;5127441;27;20514;-57
2021/01/12 02:04:38;;;;;;;2.90;2.22;;;20.70;39.40;;;;;;5130459;27;20024;-55
2021/01/12 02:07:06;;;;;;;3.20;2.35;;;20.70;39.30;;;;;;5111859;28;20023;-56
2021/01/12 02:09:46;;;;;;;2.60;2.20;;;20.70;39.20;;;;;;5125428;27;20481;-53
2021/01/12 02:12:27;;;;;;;3.70;2.28;;;20.70;39.30;;;;;;5123392;27;20111;-50
2021/01/12 02:14:54;;;;;;;3.78;2.38;;;20.70;40.00;;;;;;5113656;28;20040;-54
2021/01/12 02:17:20;;;;;;;3.80;2.38;;;20.70;39.20;;;;;;5111857;28;20055;-57
2021/01/12 02:19:46;;;;;;;3.05;2.38;;;20.60;39.20;;;;;;5111265;28;20570;-47
2021/01/12 02:22:20;;;;;;;3.38;2.60;;;20.70;39.30;;;;;;5112823;28;20027;-47
2021/01/12 02:24:47;;;;;;;5.82;2.72;;;20.70;39.20;;;;;;5094961;28;20031;-54
2021/01/12 02:27:24;;;;;;;3.42;2.25;;;20.70;39.20;;;;;;5112252;28;20023;-45
2021/01/12 02:29:51;;;;;;;2.97;2.00;;;20.70;39.30;;;;;;5113011;28;20499;-56
2021/01/12 02:32:18;;;;;;;2.92;2.17;;;20.70;39.20;;;;;;5110659;28;20635;-48
2021/01/12 02:34:45;;;;;;;4.45;3.08;;;20.70;39.10;;;;;;5112976;28;20036;-52
2021/01/12 02:37:15;;;;;;;3.08;2.40;;;20.70;39.20;;;;;;5112358;28;20038;-55
2021/01/12 02:39:55;;;;;;;3.72;2.30;;;20.70;39.10;;;;;;5113406;27;20099;-57
2021/01/12 02:42:20;;;;;;;3.60;2.00;;;20.70;39.10;;;;;;5111572;28;20426;-58
2021/01/12 02:44:46;;;;;;;3.60;2.50;;;20.70;39.10;;;;;;5112476;28;20027;-54
2021/01/12 02:47:12;;;;;;;2.83;2.20;;;20.70;39.00;;;;;;5111853;28;20407;-45
2021/01/12 02:49:38;;;;;;;3.40;2.58;;;20.70;39.10;;;;;;5112219;28;20106;-50
2021/01/12 02:52:05;;;;;;;2.70;1.85;;;20.70;39.10;;;;;;5111855;28;20388;-53
2021/01/12 02:54:31;;;;;;;2.42;2.22;;;20.70;39.10;;;;;;5112890;28;20403;-57
2021/01/12 02:56:56;;;;;;;3.08;2.20;;;20.70;39.10;;;;;;5112110;28;20028;-59
2021/01/12 02:59:22;;;;;;;2.47;2.00;;;20.70;39.00;;;;;;5111458;28;20023;-46
2021/01/12 03:01:48;;;;;;;2.70;2.05;;;20.70;39.00;;;;;;5111934;28;20495;-55
2021/01/12 03:04:13;;;;;;;3.15;2.08;;;20.70;39.00;;;;;;5111159;28;20089;-53
2021/01/12 03:06:39;;;;;;;2.13;1.92;;;20.70;39.00;;;;;;5112568;28;20848;-47
2021/01/12 03:09:05;;;;;;;2.40;1.70;;;20.70;39.00;;;;;;5105968;27;20046;-54
2021/01/12 03:11:32;;;;;;;4.05;1.88;;;20.70;39.00;;;;;;5111467;28;20072;-55
2021/01/12 03:13:58;;;;;;;2.97;2.42;;;20.70;38.90;;;;;;5112110;28;20035;-59
2021/01/12 03:16:24;;;;;;;2.67;1.90;;;20.70;38.90;;;;;;5111506;28;20054;-55
2021/01/12 03:18:50;;;;;;;2.50;1.70;;;20.70;38.90;;;;;;5111280;28;20028;-57
2021/01/12 03:21:16;;;;;;;2.45;2.05;;;20.70;38.90;;;;;;5111623;28;20023;-47
2021/01/12 03:23:42;;;;;;;2.90;2.10;;;20.70;38.90;;;;;;5112090;28;20030;-57
2021/01/12 03:26:08;;;;;;;2.10;1.90;;;20.70;38.90;;;;;;5111589;28;20104;-52
2021/01/12 03:28:33;;;;;;;2.45;2.17;;;20.70;38.80;;;;;;5110471;28;20058;-56
2021/01/12 03:31:00;;;;;;;2.33;2.08;;;20.70;38.90;;;;;;5111058;28;20032;-58
2021/01/12 03:33:27;;;;;;;2.28;1.90;;;20.70;38.80;;;;;;5112230;28;20107;-55
2021/01/12 03:35:52;;;;;;;3.97;1.92;;;20.70;38.80;;;;;;5112113;28;20027;-55
2021/01/12 03:38:18;;;;;;;2.17;1.98;;;20.70;38.90;;;;;;5094679;28;20015;-56
2021/01/12 03:40:44;;;;;;;2.80;2.10;;;20.70;38.90;;;;;;5129422;28;20437;-50
2021/01/12 03:43:09;;;;;;;2.97;1.80;;;20.70;38.90;;;;;;5119415;27;20049;-57
2021/01/12 03:45:35;;;;;;;3.28;1.98;;;20.70;38.90;;;;;;5110506;28;20058;-51
2021/01/12 03:48:01;;;;;;;2.45;1.90;;;20.70;38.90;;;;;;5116897;28;20465;-59
2021/01/12 03:50:27;;;;;;;2.88;2.03;;;20.70;38.90;;;;;;5111687;28;20023;-55
2021/01/12 03:52:54;;;;;;;2.53;1.90;;;20.70;38.80;;;;;;5111760;28;20038;-55
2021/01/12 03:55:20;;;;;;;3.08;1.85;;;20.70;38.80;;;;;;5111225;28;20243;-57
2021/01/12 03:57:46;;;;;;;4.95;3.15;;;20.70;38.80;;;;;;5111789;28;20035;-47
2021/01/12 04:00:12;;;;;;;2.33;1.67;;;20.70;38.80;;;;;;5110849;28;20057;-48
2021/01/12 04:02:38;;;;;;;4.30;1.83;;;20.70;38.80;;;;;;5111770;28;20027;-58
2021/01/12 04:05:04;;;;;;;2.78;1.95;;;20.70;38.80;;;;;;5111086;28;20020;-58
2021/01/12 04:07:30;;;;;;;2.17;1.90;;;20.70;38.80;;;;;;5111601;28;20445;-58
2021/01/12 04:09:56;;;;;;;3.53;1.85;;;20.70;38.80;;;;;;5118220;28;20095;-54
2021/01/12 04:12:21;;;;;;;1.95;1.60;;;20.70;38.80;;;;;;5114811;27;20032;-48
2021/01/12 04:14:47;;;;;;;2.35;1.60;;;20.70;38.80;;;;;;5114789;27;20050;-55
2021/01/12 04:17:13;;;;;;;3.22;1.85;;;20.70;38.80;;;;;;5108013;28;20044;-53
2021/01/12 04:19:39;;;;;;;2.55;1.67;;;20.70;38.70;;;;;;5111380;28;20020;-54
2021/01/12 04:22:05;;;;;;;3.40;2.10;;;20.70;38.80;;;;;;5111049;28;20040;-51
2021/01/12 04:24:30;;;;;;;2.58;1.67;;;20.70;38.70;;;;;;5111625;28;20031;-53
2021/01/12 04:26:56;;;;;;;2.03;1.77;;;20.70;38.70;;;;;;5111309;28;20396;-56
2021/01/12 04:29:22;;;;;;;2.03;1.80;;;20.70;38.70;;;;;;5109715;27;20053;-50
2021/01/12 04:31:47;;;;;;;2.40;2.00;;;20.70;38.70;;;;;;5129083;27;20821;-53
2021/01/12 04:34:13;;;;;;;2.33;1.70;;;20.70;38.70;;;;;;5131623;27;20123;-52
2021/01/12 04:36:39;;;;;;;2.38;1.70;;;20.70;38.80;;;;;;5136263;27;20026;-54
2021/01/12 04:39:05;;;;;;;1.75;1.40;;;20.70;38.70;;;;;;5134204;27;20384;-46
2021/01/12 04:41:30;;;;;;;2.20;1.67;;;20.70;38.70;;;;;;5133116;27;20100;-58
2021/01/12 04:43:56;;;;;;;1.95;1.60;;;20.70;38.70;;;;;;5133132;27;20102;-58
2021/01/12 04:46:22;;;;;;;2.42;1.75;;;20.70;38.70;;;;;;5118821;27;20063;-44
2021/01/12 04:48:49;;;;;;;2.10;1.60;;;20.70;38.70;;;;;;5114937;28;20024;-54
2021/01/12 04:51:15;;;;;;;2.25;1.92;;;20.70;38.70;;;;;;5113196;28;20067;-48
2021/01/12 04:53:48;;;;;;;2.45;1.80;;;20.70;38.70;;;;;;5115074;28;20239;-55
2021/01/12 04:56:15;;;;;;;1.67;1.40;;;20.70;38.70;;;;;;5114518;28;20076;-49
2021/01/12 04:58:43;;;;;;;2.08;1.67;;;20.70;38.70;;;;;;5115464;28;20341;-50
2021/01/12 05:01:17;;;;;;;2.17;1.65;;;20.70;38.60;;;;;;5114280;28;20569;-58
2021/01/12 05:03:44;;;;;;;2.03;1.70;;;20.70;39.30;;;;;;5114623;28;20046;-58
2021/01/12 05:06:11;;;;;;;2.22;1.70;;;20.70;38.70;;;;;;5093854;28;20424;-57
2021/01/12 05:08:41;;;;;;;2.40;1.70;;;20.70;38.70;;;;;;5112717;27;20068;-55
2021/01/12 05:11:08;;;;;;;2.42;1.90;;;20.70;38.70;;;;;;5113231;28;20023;-56
2021/01/12 05:13:35;;;;;;;2.35;1.65;;;20.70;38.70;;;;;;5114352;27;20085;-55
2021/01/12 05:16:07;;;;;;;1.38;1.27;;;20.70;38.70;;;;;;5113618;28;20024;-56
2021/01/12 05:18:36;;;;;;;;;;;20.70;38.70;;;;;;5114985;28;20024;-58
2021/01/12 05:21:03;;;;;;;2.28;1.40;;;20.80;38.80;;;;;;5113956;28;19951;-58
2021/01/12 05:23:29;;;;;;;3.35;1.40;;;20.80;38.80;;;;;;5113643;28;20103;-57
2021/01/12 05:26:01;;;;;;;1.70;1.50;;;20.70;38.80;;;;;;5113304;28;20365;-58
2021/01/12 05:28:28;;;;;;;2.10;1.40;;;20.70;38.70;;;;;;5113909;28;20084;-57
2021/01/12 05:30:55;;;;;;;2.03;1.52;;;20.80;38.80;;;;;;5114191;28;20072;-48
2021/01/12 05:33:21;;;;;;;2.65;1.55;;;20.70;38.70;;;;;;5112860;28;20039;-59
2021/01/12 05:35:48;;;;;;;3.30;1.40;;;20.80;38.80;;;;;;5112559;28;20119;-55
2021/01/12 05:38:27;;;;;;;2.38;1.58;;;20.70;38.70;;;;;;5114543;27;20140;-50
2021/01/12 05:40:58;;;;;;;1.80;1.50;;;20.70;38.80;;;;;;5133167;27;20023;-45
2021/01/12 05:43:37;;;;;;;1.63;1.42;;;20.80;38.80;;;;;;5117824;27;20252;-55
2021/01/12 05:46:11;;;;;;;2.17;1.55;;;20.70;38.70;;;;;;5111753;28;20470;-57
2021/01/12 05:48:38;;;;;;;2.10;1.58;;;20.80;38.80;;;;;;5114122;28;20024;-59
2021/01/12 05:51:06;;;;;;;2.83;1.77;;;20.70;38.70;;;;;;5111787;28;20035;-60
2021/01/12 05:53:45;;;;;;;2.05;1.58;;;20.80;38.80;;;;;;5114074;28;20027;-54
2021/01/12 05:56:25;;;;;;;1.92;1.75;;;20.70;38.80;;;;;;5113039;28;20028;-59
2021/01/12 05:58:56;;;;;;;1.90;1.60;;;20.70;38.70;;;;;;5112431;28;20024;-58
2021/01/12 06:01:31;;;;;;;2.80;1.37;;;20.70;38.70;;;;;;5111831;28;20199;-57
2021/01/12 06:03:57;;;;;;;2.50;1.70;;;20.80;38.80;;;;;;5113780;28;20451;-57
2021/01/12 06:06:23;;;;;;;2.22;1.30;;;20.80;38.70;;;;;;5112896;28;20476;-58
2021/01/12 06:08:50;;;;;;;2.42;1.70;;;20.70;38.70;;;;;;5110192;27;20358;-50
2021/01/12 06:11:18;;;;;;;1.85;1.50;;;20.70;39.40;;;;;;5112321;28;20413;-54
2021/01/12 06:13:53;;;;;;;1.60;1.33;;;20.70;38.70;;;;;;5113128;28;20084;-54
2021/01/12 06:16:22;;;;;;;1.90;1.60;;;20.80;38.80;;;;;;5111243;28;20130;-55
2021/01/12 06:19:17;;;;;;;1.98;1.63;;;20.70;38.70;;;;;;5112813;28;20036;-55
2021/01/12 06:21:55;;;;;;;2.08;1.42;;;20.80;38.70;;;;;;5110958;28;20043;-53
2021/01/12 06:24:40;;;;;;;2.50;1.40;;;20.80;38.70;;;;;;5112400;28;20418;-55
2021/01/12 06:27:07;;;;;;;1.45;1.30;;;20.80;38.80;;;;;;5112641;28;20073;-58
2021/01/12 06:29:34;;;;;;;2.15;1.42;;;20.70;39.30;;;;;;5113358;28;20494;-48
2021/01/12 06:32:00;;;;;;;1.73;1.40;;;20.80;38.70;;;;;;5112723;28;20081;-51
2021/01/12 06:34:26;;;;;;;3.15;1.52;;;20.80;38.80;;;;;;5111536;28;20577;-48
2021/01/12 06:36:57;;;;;;;1.88;1.50;;;20.80;38.80;;;;;;5111754;28;20027;-49
2021/01/12 06:39:28;;;;;;;1.73;1.30;;;20.70;38.70;;;;;;5111322;27;20058;-51
2021/01/12 06:41:54;;;;;;;1.77;1.30;;;20.80;38.80;;;;;;5112974;28;20057;-58
2021/01/12 06:44:24;;;;;;;2.25;1.60;;;20.70;38.70;;;;;;5111954;28;20035;-54
2021/01/12 06:46:55;;;;;;;2.92;1.20;;;20.70;38.70;;;;;;5112627;28;20472;-47
2021/01/12 06:49:24;;;;;;;2.97;1.20;;;20.80;38.70;;;;;;5111474;27;20111;-54
2021/01/12 06:52:02;;;;;;;2.05;1.38;;;20.80;38.70;;;;;;5112378;28;20220;-57
2021/01/12 06:54:46;;;;;;;1.65;1.40;;;20.80;38.70;;;;;;5112262;28;20067;-57
2021/01/12 06:57:24;;;;;;;1.95;1.42;;;20.70;38.70;;;;;;5111610;28;20031;-56
2021/01/12 06:59:55;;;;;;;2.22;1.20;;;20.70;38.70;;;;;;5112573;28;20036;-54
2021/01/12 07:02:30;;;;;;;2.08;1.45;;;20.80;38.70;;;;;;5111896;28;20031;-49
2021/01/12 07:05:02;;;;;;;1.70;1.15;;;20.70;38.70;;;;;;5111384;28;20487;-55
2021/01/12 07:07:29;;;;;;;2.70;1.33;;;20.80;38.70;;;;;;5110128;28;20463;-54
2021/01/12 07:09:56;;;;;;;1.40;1.20;;;20.80;38.70;;;;;;5121642;27;20023;-57
2021/01/12 07:12:23;;;;;;;1.45;1.10;;;20.80;38.70;;;;;;5123969;27;20769;-52
2021/01/12 07:14:57;;;;;;;1.77;1.05;;;20.70;38.70;;;;;;5112516;28;20028;-53
2021/01/12 07:17:27;;;;;;;2.58;1.55;;;20.80;38.70;;;;;;5107012;28;20665;-52
2021/01/12 07:20:24;;;;;;;1.80;1.30;;;20.80;38.70;;;;;;5111738;28;20028;-55
2021/01/12 07:22:57;;;;;;;1.60;1.20;;;20.80;38.70;;;;;;5102866;28;20040;-50
2021/01/12 07:25:25;;;;;;;1.75;1.23;;;20.70;38.70;;;;;;5111676;28;20027;-47
2021/01/12 07:28:07;;;;;;;1.98;1.33;;;20.80;38.70;;;;;;5112237;28;20031;-58
2021/01/12 07:30:35;;;;;;;1.60;1.17;;;20.80;38.80;;;;;;5112196;28;20031;-54
2021/01/12 07:33:03;;;;;;;1.20;1.00;;;20.80;38.80;;;;;;5111993;28;20032;-53
2021/01/12 07:35:31;;;;;;;1.85;1.30;;;20.70;38.70;;;;;;5111097;28;20532;-54
2021/01/12 07:37:57;;;;;;;2.58;1.42;;;20.80;38.80;;;;;;5110992;28;20107;-54
2021/01/12 07:40:23;;;;;;;1.60;1.20;;;20.70;38.70;;;;;;5128105;27;20442;-46
2021/01/12 07:42:51;;;;;;;1.20;1.08;;;20.70;38.70;;;;;;5122827;27;20036;-52
2021/01/12 07:45:20;;;;;;;2.03;1.13;;;20.70;38.70;;;;;;5111495;28;20039;-57
2021/01/12 07:47:52;;;;;;;2.45;1.05;;;20.80;38.90;;;;;;5157353;27;20110;-55
2021/01/12 07:50:22;;;;;;;1.75;1.15;;;20.70;38.80;;;;;;5110184;28;20015;-53
2021/01/12 07:52:48;;;;;;;3.03;1.20;;;20.80;39.10;;;;;;5121413;28;20515;-46
2021/01/12 07:55:15;;;;;;;1.38;1.13;;;20.80;39.20;;;;;;5130637;28;20110;-49
2021/01/12 07:57:41;;;;;;;1.60;1.30;;;20.80;39.40;;;;;;5114600;27;20414;-55
2021/01/12 08:00:12;;;;;;;5.10;1.58;;;20.80;39.60;;;;;;5110601;28;20114;-57
2021/01/12 08:02:42;;;;;;;2.00;1.03;;;20.90;39.60;;;;;;5111534;28;20092;-55
2021/01/12 08:05:10;;;;;;;1.52;1.20;;;20.90;39.60;;;;;;5112073;28;20561;-57
2021/01/12 08:07:36;;;;;;;1.58;1.20;;;21.00;39.60;;;;;;5111655;27;20031;-59
2021/01/12 08:10:05;;;;;;;1.45;1.10;;;21.00;39.50;;;;;;5107778;27;20529;-48
2021/01/12 08:12:32;;;;;;;1.40;1.05;;;21.00;39.60;;;;;;5116238;27;20051;-53
2021/01/12 08:15:12;;;;;;;1.45;1.30;;;21.10;39.50;;;;;;5115624;28;20036;-54
2021/01/12 08:17:48;;;;;;;3.40;1.13;;;21.10;39.60;;;;;;5114970;28;20537;-48
2021/01/12 08:20:18;;;;;;;1.50;1.00;;;21.10;39.60;;;;;;5114880;28;20147;-53
2021/01/12 08:22:55;;;;;;;3.22;1.17;;;21.10;39.50;;;;;;5114171;28;20361;-56
2021/01/12 08:25:22;;;;;;;3.45;1.20;;;21.20;39.70;;;;;;5114598;28;20353;-54
2021/01/12 08:27:53;;;;;;;3.97;1.30;;;21.10;39.60;;;;;;5115552;28;20027;-54
2021/01/12 08:30:21;;;;;;;2.28;1.10;;;21.20;39.60;;;;;;5114358;28;20164;-55
2021/01/12 08:32:55;;;;;;;2.75;1.20;;;21.20;39.50;;;;;;5115043;28;20393;-54
2021/01/12 08:35:26;;;;;;;1.38;0.90;;;21.20;39.40;;;;;;5114138;28;20062;-54
2021/01/12 08:37:53;;;;;;;3.65;1.23;;;21.20;39.40;;;;;;5112596;27;20031;-57
2021/01/12 08:40:19;;;;;;;1.77;1.00;;;21.20;39.40;;;;;;5126819;27;20035;-53
2021/01/12 08:42:47;;;;;;;2.17;1.15;;;21.30;39.40;;;;;;5117748;27;20035;-57
2021/01/12 08:45:17;;;;;;;2.92;1.20;;;21.30;39.40;;;;;;5114725;28;20160;-54
2021/01/12 08:47:45;;;;;;;2.53;1.73;;;21.30;39.30;;;;;;5114320;28;20027;-52
2021/01/12 08:50:11;;;;;;;3.03;1.38;;;21.30;39.30;;;;;;5118651;27;20047;-56
2021/01/12 08:52:39;;;;;;;4.40;1.40;;;21.30;39.30;;;;;;5128006;27;20112;-53
2021/01/12 08:55:16;;;;;;;2.85;1.05;;;21.40;39.40;;;;;;5115096;28;20385;-55
2021/01/12 08:57:42;;;;;;;2.92;1.20;;;21.40;39.30;;;;;;5115098;28;20023;-52
2021/01/12 09:00:14;;;;;;;12.07;1.30;;;21.40;39.30;;;;;;5114278;28;20044;-58
2021/01/12 09:02:40;;;;;;;3.08;1.17;;;21.40;39.60;;;;;;5114203;28;20035;-55
2021/01/12 09:05:07;;;;;;;3.17;1.38;;;21.40;39.70;;;;;;5115023;28;20507;-58
2021/01/12 09:07:33;;;;;;;2.95;1.02;;;21.40;40.00;;;;;;5116226;28;20101;-57
2021/01/12 09:09:59;;;;;;;3.70;1.10;;;21.40;40.10;;;;;;5112858;27;20460;-55
2021/01/12 09:12:25;;;;;;;4.18;1.10;;;21.50;40.90;;;;;;5121590;27;20123;-54
2021/01/12 09:14:51;;;;;;;2.60;1.30;;;21.50;40.60;;;;;;5114370;28;20077;-54
2021/01/12 09:17:21;;;;;;;3.95;1.08;;;21.50;40.90;;;;;;5103284;28;20450;-56
2021/01/12 09:19:52;;;;;;;8.20;1.30;;;21.50;41.00;;;;;;5113745;28;20019;-48
2021/01/12 09:22:20;;;;;;;4.47;1.13;;;21.40;41.30;;;;;;5113596;28;20380;-60
2021/01/12 09:24:55;;;;;;;2.97;1.20;;;21.50;40.90;;;;;;5114415;28;20043;-49
2021/01/12 09:27:29;;;;;;;5.40;1.98;;;21.60;40.80;;;;;;5092935;28;20070;-60
2021/01/12 09:29:55;;;;;;;4.30;1.08;;;21.60;40.80;;;;;;5093869;28;20031;-60
2021/01/12 09:32:26;;;;;;;7.25;1.30;;;21.60;40.80;;;;;;5113186;28;20057;-60
2021/01/12 09:34:52;;;;;;;4.47;1.50;;;21.60;40.80;;;;;;5112808;28;20473;-60
2021/01/12 09:37:18;;;;;;;3.35;1.30;;;21.60;40.90;;;;;;5112999;28;20035;-60
2021/01/12 09:39:56;;;;;;;6.32;1.45;;;21.60;41.00;;;;;;5112002;27;20142;-61
2021/01/12 09:42:29;;;;;;;4.00;1.00;;;21.60;41.40;;;;;;5120935;27;20502;-62
2021/01/12 09:44:55;;;;;;;3.80;0.90;;;21.60;41.40;;;;;;5113432;28;20030;-66
2021/01/12 09:47:22;;;;;;;4.80;1.08;;;21.60;41.60;;;;;;5112353;28;20030;-54
2021/01/12 09:49:49;;;;;;;2.40;1.10;;;21.60;41.40;;;;;;5121720;27;20042;-61
2021/01/12 09:52:17;;;;;;;3.80;1.23;;;21.60;41.40;;;;;;5133321;27;20479;-58
2021/01/12 09:54:45;;;;;;;3.70;1.08;;;21.60;41.30;;;;;;5131548;27;20031;-60
2021/01/12 09:57:14;;;;;;;3.83;1.00;;;21.60;41.30;;;;;;5133575;27;20031;-63
2021/01/12 09:59:41;;;;;;;2.13;1.02;;;21.60;41.30;;;;;;5134838;27;20031;-60
2021/01/12 10:02:08;;;;;;;2.65;1.00;;;21.60;41.20;;;;;;5117381;27;20032;-60
2021/01/12 10:04:33;;;;;;;3.22;0.82;;;21.60;41.20;;;;;;5113371;28;20064;-59
2021/01/12 10:07:00;;;;;;;4.18;1.10;;;21.60;41.30;;;;;;5113784;28;20465;-59
2021/01/12 10:09:27;;;;;;;2.58;0.88;;;21.60;41.40;;;;;;5113776;27;20072;-53
2021/01/12 10:11:53;;;;;;;2.75;0.80;;;21.60;41.30;;;;;;5128969;27;20155;-48
2021/01/12 10:14:24;;;;;;;4.72;1.30;;;21.60;41.60;;;;;;5133484;27;20041;-61
2021/01/12 10:16:50;;;;;;;4.00;0.90;;;21.60;41.60;;;;;;5133318;27;20130;-61
2021/01/12 10:19:16;;;;;;;3.42;0.90;;;21.60;41.70;;;;;;5133350;27;20019;-61
2021/01/12 10:21:41;;;;;;;3.28;0.90;;;21.60;41.70;;;;;;5120553;27;20046;-50
2021/01/12 10:24:08;;;;;;;3.25;1.10;;;21.60;41.60;;;;;;5112379;28;20538;-65
2021/01/12 10:26:34;;;;;;;3.95;0.98;;;21.60;41.70;;;;;;5112719;28;20027;-58
2021/01/12 10:29:00;;;;;;;6.32;1.10;;;21.60;42.20;;;;;;5110980;27;20046;-61
2021/01/12 10:31:26;;;;;;;2.78;1.10;;;21.60;41.50;;;;;;5112295;27;20059;-56
2021/01/12 10:33:52;;;;;;;4.38;0.98;;;21.60;41.80;;;;;;5111551;28;20373;-60
2021/01/12 10:36:20;;;;;;;4.22;0.80;;;21.60;41.60;;;;;;5112527;28;20027;-61
2021/01/12 10:38:46;;;;;;;3.20;0.90;;;21.60;41.70;;;;;;5123275;27;20015;-64
2021/01/12 10:41:12;;;;;;;3.22;0.93;;;21.60;41.80;;;;;;5133234;27;20034;-62
2021/01/12 10:43:38;;;;;;;2.60;0.60;;;21.60;41.80;;;;;;5133501;27;20481;-66
2021/01/12 10:46:04;;;;;;;5.47;0.90;;;21.60;41.80;;;;;;5131266;27;20099;-63
2021/01/12 10:48:30;;;;;;;2.22;0.95;;;21.50;41.70;;;;;;5112507;28;20051;-66
2021/01/12 10:50:56;;;;;;;4.70;0.88;;;21.60;41.80;;;;;;5112841;28;20128;-59
2021/01/12 10:53:22;;;;;;;3.00;0.65;;;21.50;41.70;;;;;;5111988;28;20507;-59
2021/01/12 10:55:49;;;;;;;2.33;0.60;;;21.50;41.70;;;;;;5111806;28;20107;-61
2021/01/12 10:58:15;;;;;;;1.70;0.70;;;21.50;41.70;;;;;;5111765;28;20468;-62
2021/01/12 11:00:41;;;;;;;3.17;0.82;;;21.50;41.80;;;;;;5113164;28;20023;-60
2021/01/12 11:03:07;;;;;;;2.35;0.88;;;21.50;41.80;;;;;;5112608;28;20414;-63
2021/01/12 11:05:36;;;;;;;2.70;0.90;;;21.50;42.00;;;;;;5112110;28;20050;-61
2021/01/12 11:08:02;;;;;;;1.33;0.98;;;21.50;41.90;;;;;;5115039;27;20059;-63
2021/01/12 11:10:29;;;;;;;1.63;0.70;;;21.50;41.80;;;;;;5117941;27;20024;-59
2021/01/12 11:12:56;;;;;;;2.22;0.80;;;21.60;41.80;;;;;;5133118;27;20440;-59
2021/01/12 11:15:22;;;;;;;1.30;0.80;;;21.60;41.80;;;;;;5131062;27;20023;-62
2021/01/12 11:17:48;;;;;;;2.00;0.65;;;21.50;41.80;;;;;;5115537;27;20056;-62
2021/01/12 11:20:16;;;;;;;2.05;0.70;;;21.60;41.80;;;;;;5111766;28;20106;-64
2021/01/12 11:22:43;;;;;;;0.82;0.60;;;21.50;41.70;;;;;;5112257;28;20035;-59
2021/01/12 11:25:10;;;;;;;1.00;0.85;;;21.60;41.80;;;;;;5112109;28;20027;-62
2021/01/12 11:27:36;;;;;;;1.27;0.65;;;21.50;41.80;;;;;;5112293;28;20043;-64
2021/01/12 11:30:04;;;;;;;2.15;0.65;;;21.50;41.70;;;;;;5111973;28;20031;-63
2021/01/12 11:32:34;;;;;;;1.65;0.52;;;21.50;41.80;;;;;;5111341;28;20039;-61
2021/01/12 11:35:01;;;;;;;1.50;0.50;;;21.50;41.70;;;;;;5112275;28;20036;-64
2021/01/12 11:37:29;;;;;;;1.63;0.75;;;21.50;41.70;;;;;;5111376;28;20377;-64
2021/01/12 11:39:55;;;;;;;1.98;0.63;;;21.50;41.80;;;;;;5108099;28;20114;-61
2021/01/12 11:42:21;;;;;;;1.05;0.50;;;21.50;41.70;;;;;;5120436;27;20059;-59
2021/01/12 11:44:48;;;;;;;1.58;0.95;;;21.50;41.70;;;;;;5110951;28;20055;-62
2021/01/12 11:47:15;;;;;;;5.80;0.70;;;21.50;41.70;;;;;;5110832;28;20024;-61
2021/01/12 11:49:40;;;;;;;2.58;0.60;;;21.50;41.70;;;;;;5111935;28;20094;-63
2021/01/12 11:52:07;;;;;;;1.48;0.60;;;21.50;41.80;;;;;;5112015;28;20039;-61
2021/01/12 11:54:34;;;;;;;2.03;0.50;;;21.50;41.80;;;;;;5111430;28;20096;-62
2021/01/12 11:57:00;;;;;;;2.08;0.60;;;21.50;41.80;;;;;;5111824;28;20069;-61
2021/01/12 11:59:27;;;;;;;0.85;0.47;;;21.50;41.80;;;;;;5111078;28;20043;-50
2021/01/12 12:01:54;;;;;;;1.48;0.60;;;21.50;41.80;;;;;;5111822;28;20023;-63
2021/01/12 12:04:24;;;;;;;0.85;0.50;;;21.50;41.80;;;;;;5111064;28;20473;-64
2021/01/12 12:06:55;;;;;;;4.38;0.50;;;21.50;41.80;;;;;;5111789;28;20028;-51
2021/01/12 12:09:21;;;;;;;1.02;0.43;;;21.50;41.80;;;;;;5107598;28;20038;-59
2021/01/12 12:11:47;;;;;;;0.70;0.35;;;21.50;41.80;;;;;;5111435;28;20055;-63
2021/01/12 12:14:15;;;;;;;2.80;0.57;;;21.50;41.80;;;;;;5111704;28;20070;-61
2021/01/12 12:16:45;;;;;;;6.72;0.70;;;21.50;41.90;;;;;;5111081;28;20051;-62
2021/01/12 12:19:12;;;;;;;2.42;0.40;;;21.50;41.80;;;;;;5112049;28;20031;-61
2021/01/12 12:21:45;;;;;;;3.30;0.88;;;21.50;41.90;;;;;;5116400;28;20093;-62
2021/01/12 12:24:12;;;;;;;3.65;0.50;;;21.50;41.90;;;;;;5132649;28;20468;-59
2021/01/12 12:26:37;;;;;;;0.68;0.40;;;21.50;42.00;;;;;;5131597;27;20058;-68
2021/01/12 12:29:03;;;;;;;2.63;0.50;;;21.50;41.90;;;;;;5132462;28;20066;-64
2021/01/12 12:31:28;;;;;;;3.85;0.85;;;21.50;42.00;;;;;;5130266;28;20372;-65
2021/01/12 12:33:54;;;;;;;3.35;0.50;;;21.50;41.90;;;;;;5132625;28;20023;-57
2021/01/12 12:36:20;;;;;;;1.58;0.40;;;21.50;41.90;;;;;;5131382;28;20026;-63
2021/01/12 12:38:46;;;;;;;4.28;0.80;;;21.50;41.90;;;;;;5131229;28;20027;-63
2021/01/12 12:41:15;;;;;;;4.47;0.60;;;21.50;41.90;;;;;;5132101;27;20404;-64
2021/01/12 12:43:42;;;;;;;4.30;0.60;;;21.50;41.80;;;;;;5130952;28;20046;-67
2021/01/12 12:46:09;;;;;;;5.25;0.60;;;21.50;41.90;;;;;;5128962;27;20663;-57
2021/01/12 12:48:35;;;;;;;2.65;0.60;;;21.50;41.40;;;;;;5109947;28;20355;-64
2021/01/12 12:51:02;;;;;;;0.82;0.50;;;21.40;41.10;;;;;;5113149;28;20080;-68
2021/01/12 12:53:30;;;;;;;2.20;0.52;;;21.40;41.20;;;;;;5114388;28;20031;-56